Megah Delapan — VRGA4 — position and weather

sailwx.info

Track history (hours):
 
Tides and Currents Weather Stations Pressure Air Temp Water Temp Dewpoint Dewpoint Depression Visibility Wind Speed Wind Dir Waves Ship Positions

Megah Delapan

Last reported at 2015-Apr-03 16:05 UTC. Time now 2015-Apr-27 20:47 UTC.
Position N 21°53' E 114°18'.
Warning: this ship's position is 24 days out of date.

Length 120 m; draft 8.7 m.

Type: Cargo ship. MMSI: 477639100.

Date/timePositionNaut miles runAvg speedWind from/ knotsBaromVisibWave heightAir tempDewpointWater temp
2015-Apr-03 16:05N 21°53' E 114°18'611.1
2015-Apr-03 15:33N 21°57' E 114°23'24 2.6
2015-Apr-03 06:04N 22°15' E 114°06'0 0.1
2015-Apr-03 05:04N 22°15' E 114°06'0 0.0
2015-Apr-03 03:22N 22°15' E 114°06'0 0.1
2015-Apr-03 02:28N 22°15' E 114°06'0 0.1
2015-Apr-03 01:28N 22°16' E 114°06'0 0.0
2015-Apr-02 21:28N 22°16' E 114°06'0 0.2
2015-Apr-02 20:28N 22°15' E 114°06'0 0.1
2015-Apr-02 19:28N 22°15' E 114°06'0 0.1
2015-Apr-02 18:28N 22°15' E 114°06'0 0.1
2015-Apr-02 17:15N 22°15' E 114°06'5 7.1
2015-Apr-02 16:33N 22°13' E 114°10'7 6.9
2015-Apr-02 15:30N 22°09' E 114°17'1110.0
2015-Apr-02 14:22N 22°09' E 114°29'14410.8
2015-Apr-02 01:07N 22°57' E 116°56'1211.2
2015-Apr-02 00:04N 23°03' E 117°07'6511.2
2015-Apr-01 18:15N 23°39' E 118°06'1212.0
2015-Apr-01 17:14N 23°46' E 118°17'912.2
2015-Apr-01 16:30N 23°52' E 118°24'1311.8
2015-Apr-01 15:25N 23°60' E 118°35'1011.5
2015-Apr-01 14:32N 24°07' E 118°43'3210.9
2015-Apr-01 11:33N 24°27' E 119°11'1010.3
2015-Apr-01 10:34N 24°34' E 119°19'1010.0
2015-Apr-01 09:33N 24°41' E 119°28'1110.5
2015-Apr-01 08:33N 24°47' E 119°37'1310.5
2015-Apr-01 07:19N 24°56' E 119°48'  
2015-Mar-28 14:09N 34°14' E 134°58'711.9
2015-Mar-28 13:33N 34°21' E 134°60'1211.5
2015-Mar-28 12:33N 34°29' E 135°10'1111.5
2015-Mar-28 11:33N 34°38' E 135°19'4 3.3
2015-Mar-28 10:30N 34°41' E 135°17'0 0.0
2015-Mar-28 09:30N 34°41' E 135°17'0 0.0
2015-Mar-28 08:12N 34°41' E 135°17'0 0.0
2015-Mar-28 07:24N 34°41' E 135°17'0 0.0
2015-Mar-28 06:24N 34°41' E 135°17'0 0.0
2015-Mar-28 05:30N 34°41' E 135°17'0 0.0
2015-Mar-28 04:18N 34°41' E 135°17'0 0.0
2015-Mar-28 03:12N 34°41' E 135°17'0 0.0
2015-Mar-28 02:24N 34°41' E 135°17'0 0.0
2015-Mar-28 01:18N 34°41' E 135°17'0 0.0
2015-Mar-28 00:30N 34°41' E 135°17'0 0.0
2015-Mar-27 23:18N 34°41' E 135°17'0 0.0
2015-Mar-27 22:24N 34°41' E 135°17'0 0.0
2015-Mar-27 21:24N 34°41' E 135°17'0 0.0
2015-Mar-27 20:30N 34°41' E 135°17'0 0.0
2015-Mar-27 19:24N 34°41' E 135°17'0 0.0
2015-Mar-27 18:30N 34°41' E 135°17'0 0.0
2015-Mar-27 17:30N 34°41' E 135°17'0 0.0
2015-Mar-27 16:24N 34°41' E 135°17'0 0.0
2015-Mar-27 15:30N 34°41' E 135°17'0 0.0
2015-Mar-27 14:30N 34°41' E 135°17'0 0.0
2015-Mar-27 13:30N 34°41' E 135°17'0 0.0
2015-Mar-27 12:30N 34°41' E 135°17'0 0.0
2015-Mar-27 11:30N 34°41' E 135°17'0 0.0
2015-Mar-27 10:30N 34°41' E 135°17'0 0.0
2015-Mar-27 09:30N 34°41' E 135°17'0 0.0
2015-Mar-27 08:30N 34°41' E 135°17'0 0.0
2015-Mar-27 07:24N 34°41' E 135°17'0 0.0
2015-Mar-27 06:30N 34°41' E 135°17'0 0.0
2015-Mar-27 05:30N 34°41' E 135°17'0 0.0
2015-Mar-27 04:30N 34°41' E 135°17'0 0.4
2015-Mar-27 03:33N 34°41' E 135°18'5 5.1
2015-Mar-27 02:33N 34°37' E 135°21'3 2.9
2015-Mar-27 01:30N 34°38' E 135°25'0 0.0
2015-Mar-27 00:24N 34°38' E 135°25'0 0.0
2015-Mar-26 23:30N 34°38' E 135°25'0 0.0
2015-Mar-26 22:30N 34°38' E 135°25'0 0.0
2015-Mar-26 21:30N 34°38' E 135°25'0 0.0
2015-Mar-26 20:30N 34°38' E 135°25'0 0.0
2015-Mar-26 19:30N 34°38' E 135°25'0 0.0
2015-Mar-26 18:30N 34°38' E 135°25'0 0.0
2015-Mar-26 17:30N 34°38' E 135°25'0 0.0
2015-Mar-26 16:24N 34°38' E 135°25'0 0.0
2015-Mar-26 15:24N 34°38' E 135°25'0 0.0
2015-Mar-26 14:30N 34°38' E 135°25'0 0.0
2015-Mar-26 13:30N 34°38' E 135°25'0 0.0
2015-Mar-26 12:30N 34°38' E 135°25'0 0.0
2015-Mar-26 11:24N 34°38' E 135°25'0 0.0
2015-Mar-26 10:24N 34°38' E 135°25'0 0.0
2015-Mar-26 09:30N 34°38' E 135°25'0 0.0
2015-Mar-26 08:24N 34°38' E 135°25'0 0.0
2015-Mar-26 07:30N 34°38' E 135°25'0 0.0
2015-Mar-26 06:30N 34°38' E 135°25'0 0.0
2015-Mar-26 05:24N 34°38' E 135°25'0 0.0
2015-Mar-26 04:24N 34°38' E 135°25'0 0.0
2015-Mar-26 03:30N 34°38' E 135°25'0 0.0
2015-Mar-26 02:30N 34°38' E 135°25'0 0.0
2015-Mar-26 01:30N 34°38' E 135°25'0 0.0
2015-Mar-26 00:30N 34°38' E 135°25'0 0.0
2015-Mar-25 23:30N 34°38' E 135°25'0 0.0
2015-Mar-25 22:30N 34°38' E 135°25'0 0.0
2015-Mar-25 21:11N 34°38' E 135°25'0 0.0
2015-Mar-25 20:24N 34°38' E 135°25'0 0.0
2015-Mar-25 19:29N 34°38' E 135°25'0 0.0
2015-Mar-25 18:29N 34°38' E 135°25'0 0.0
2015-Mar-25 17:30N 34°38' E 135°25'0 0.0
2015-Mar-25 16:29N 34°38' E 135°25'0 0.0
2015-Mar-25 15:29N 34°38' E 135°25'0 0.0
2015-Mar-25 14:23N 34°38' E 135°25'0 0.0
2015-Mar-25 13:29N 34°38' E 135°25'0 0.0
2015-Mar-25 12:29N 34°38' E 135°25'0 0.0
2015-Mar-25 11:29N 34°38' E 135°25'0 0.0
2015-Mar-25 10:29N 34°38' E 135°25'0 0.0
2015-Mar-25 09:29N 34°38' E 135°25'0 0.0
2015-Mar-25 08:29N 34°38' E 135°25'0 0.0
2015-Mar-25 07:23N 34°38' E 135°25'0 0.0
2015-Mar-25 06:29N 34°38' E 135°25'0 0.0
2015-Mar-25 05:23N 34°38' E 135°25'0 0.0
2015-Mar-25 04:29N 34°38' E 135°25'0 0.0
2015-Mar-25 03:29N 34°38' E 135°25'0 0.0
2015-Mar-25 02:17N 34°38' E 135°25'0 0.0
2015-Mar-25 01:29N 34°38' E 135°25'0 0.0
2015-Mar-25 00:23N 34°38' E 135°25'0 0.0
2015-Mar-24 23:29N 34°38' E 135°25'0 0.0
2015-Mar-24 22:23N 34°38' E 135°25'0 0.0
2015-Mar-24 21:29N 34°38' E 135°25'0 0.0
2015-Mar-24 20:29N 34°38' E 135°25'0 0.0
2015-Mar-24 19:17N 34°38' E 135°25'0 0.0
2015-Mar-24 18:29N 34°38' E 135°25'0 0.0
2015-Mar-24 17:17N 34°38' E 135°25'0 0.0
2015-Mar-24 16:23N 34°38' E 135°25'  
Track history (hours):
 
Tides and Currents Weather Stations Pressure Air Temp Water Temp Dewpoint Dewpoint Depression Visibility Wind Speed Wind Dir Waves Ship Positions

Megah Delapan

Last reported at 2015-Apr-03 16:05 UTC. Time now 2015-Apr-27 20:47 UTC.
Position N 21°53' E 114°18'.
Warning: this ship's position is 24 days out of date.

Length 120 m; draft 8.7 m.

Type: Cargo ship. MMSI: 477639100.

Date/timePositionNaut miles runAvg speedWind from/ knotsBaromVisibWave heightAir tempDewpointWater temp
2015-Apr-03 16:05N 21°53' E 114°18'611.1
2015-Apr-03 15:33N 21°57' E 114°23'24 2.6
2015-Apr-03 06:04N 22°15' E 114°06'0 0.1
2015-Apr-03 05:04N 22°15' E 114°06'0 0.0
2015-Apr-03 03:22N 22°15' E 114°06'0 0.1
2015-Apr-03 02:28N 22°15' E 114°06'0 0.1
2015-Apr-03 01:28N 22°16' E 114°06'0 0.0
2015-Apr-02 21:28N 22°16' E 114°06'0 0.2
2015-Apr-02 20:28N 22°15' E 114°06'0 0.1
2015-Apr-02 19:28N 22°15' E 114°06'0 0.1
2015-Apr-02 18:28N 22°15' E 114°06'0 0.1
2015-Apr-02 17:15N 22°15' E 114°06'5 7.1
2015-Apr-02 16:33N 22°13' E 114°10'7 6.9
2015-Apr-02 15:30N 22°09' E 114°17'1110.0
2015-Apr-02 14:22N 22°09' E 114°29'14410.8
2015-Apr-02 01:07N 22°57' E 116°56'1211.2
2015-Apr-02 00:04N 23°03' E 117°07'6511.2
2015-Apr-01 18:15N 23°39' E 118°06'1212.0
2015-Apr-01 17:14N 23°46' E 118°17'912.2
2015-Apr-01 16:30N 23°52' E 118°24'1311.8
2015-Apr-01 15:25N 23°60' E 118°35'1011.5
2015-Apr-01 14:32N 24°07' E 118°43'3210.9
2015-Apr-01 11:33N 24°27' E 119°11'1010.3
2015-Apr-01 10:34N 24°34' E 119°19'1010.0
2015-Apr-01 09:33N 24°41' E 119°28'1110.5
2015-Apr-01 08:33N 24°47' E 119°37'1310.5
2015-Apr-01 07:19N 24°56' E 119°48'  
2015-Mar-28 14:09N 34°14' E 134°58'711.9
2015-Mar-28 13:33N 34°21' E 134°60'1211.5
2015-Mar-28 12:33N 34°29' E 135°10'1111.5
2015-Mar-28 11:33N 34°38' E 135°19'4 3.3
2015-Mar-28 10:30N 34°41' E 135°17'0 0.0
2015-Mar-28 09:30N 34°41' E 135°17'0 0.0
2015-Mar-28 08:12N 34°41' E 135°17'0 0.0
2015-Mar-28 07:24N 34°41' E 135°17'0 0.0
2015-Mar-28 06:24N 34°41' E 135°17'0 0.0
2015-Mar-28 05:30N 34°41' E 135°17'0 0.0
2015-Mar-28 04:18N 34°41' E 135°17'0 0.0
2015-Mar-28 03:12N 34°41' E 135°17'0 0.0
2015-Mar-28 02:24N 34°41' E 135°17'0 0.0
2015-Mar-28 01:18N 34°41' E 135°17'0 0.0
2015-Mar-28 00:30N 34°41' E 135°17'0 0.0
2015-Mar-27 23:18N 34°41' E 135°17'0 0.0
2015-Mar-27 22:24N 34°41' E 135°17'0 0.0
2015-Mar-27 21:24N 34°41' E 135°17'0 0.0
2015-Mar-27 20:30N 34°41' E 135°17'0 0.0
2015-Mar-27 19:24N 34°41' E 135°17'0 0.0
2015-Mar-27 18:30N 34°41' E 135°17'0 0.0
2015-Mar-27 17:30N 34°41' E 135°17'0 0.0
2015-Mar-27 16:24N 34°41' E 135°17'0 0.0
2015-Mar-27 15:30N 34°41' E 135°17'0 0.0
2015-Mar-27 14:30N 34°41' E 135°17'0 0.0
2015-Mar-27 13:30N 34°41' E 135°17'0 0.0
2015-Mar-27 12:30N 34°41' E 135°17'0 0.0
2015-Mar-27 11:30N 34°41' E 135°17'0 0.0
2015-Mar-27 10:30N 34°41' E 135°17'0 0.0
2015-Mar-27 09:30N 34°41' E 135°17'0 0.0
2015-Mar-27 08:30N 34°41' E 135°17'0 0.0
2015-Mar-27 07:24N 34°41' E 135°17'0 0.0
2015-Mar-27 06:30N 34°41' E 135°17'0 0.0
2015-Mar-27 05:30N 34°41' E 135°17'0 0.0
2015-Mar-27 04:30N 34°41' E 135°17'0 0.4
2015-Mar-27 03:33N 34°41' E 135°18'5 5.1
2015-Mar-27 02:33N 34°37' E 135°21'3 2.9
2015-Mar-27 01:30N 34°38' E 135°25'0 0.0
2015-Mar-27 00:24N 34°38' E 135°25'0 0.0
2015-Mar-26 23:30N 34°38' E 135°25'0 0.0
2015-Mar-26 22:30N 34°38' E 135°25'0 0.0
2015-Mar-26 21:30N 34°38' E 135°25'0 0.0
2015-Mar-26 20:30N 34°38' E 135°25'0 0.0
2015-Mar-26 19:30N 34°38' E 135°25'0 0.0
2015-Mar-26 18:30N 34°38' E 135°25'0 0.0
2015-Mar-26 17:30N 34°38' E 135°25'0 0.0
2015-Mar-26 16:24N 34°38' E 135°25'0 0.0
2015-Mar-26 15:24N 34°38' E 135°25'0 0.0
2015-Mar-26 14:30N 34°38' E 135°25'0 0.0
2015-Mar-26 13:30N 34°38' E 135°25'0 0.0
2015-Mar-26 12:30N 34°38' E 135°25'0 0.0
2015-Mar-26 11:24N 34°38' E 135°25'0 0.0
2015-Mar-26 10:24N 34°38' E 135°25'0 0.0
2015-Mar-26 09:30N 34°38' E 135°25'0 0.0
2015-Mar-26 08:24N 34°38' E 135°25'0 0.0
2015-Mar-26 07:30N 34°38' E 135°25'0 0.0
2015-Mar-26 06:30N 34°38' E 135°25'0 0.0
2015-Mar-26 05:24N 34°38' E 135°25'0 0.0
2015-Mar-26 04:24N 34°38' E 135°25'0 0.0
2015-Mar-26 03:30N 34°38' E 135°25'0 0.0
2015-Mar-26 02:30N 34°38' E 135°25'0 0.0
2015-Mar-26 01:30N 34°38' E 135°25'0 0.0
2015-Mar-26 00:30N 34°38' E 135°25'0 0.0
2015-Mar-25 23:30N 34°38' E 135°25'0 0.0
2015-Mar-25 22:30N 34°38' E 135°25'0 0.0
2015-Mar-25 21:11N 34°38' E 135°25'0 0.0
2015-Mar-25 20:24N 34°38' E 135°25'0 0.0
2015-Mar-25 19:29N 34°38' E 135°25'0 0.0
2015-Mar-25 18:29N 34°38' E 135°25'0 0.0
2015-Mar-25 17:30N 34°38' E 135°25'0 0.0
2015-Mar-25 16:29N 34°38' E 135°25'0 0.0
2015-Mar-25 15:29N 34°38' E 135°25'0 0.0
2015-Mar-25 14:23N 34°38' E 135°25'0 0.0
2015-Mar-25 13:29N 34°38' E 135°25'0 0.0
2015-Mar-25 12:29N 34°38' E 135°25'0 0.0
2015-Mar-25 11:29N 34°38' E 135°25'0 0.0
2015-Mar-25 10:29N 34°38' E 135°25'0 0.0
2015-Mar-25 09:29N 34°38' E 135°25'0 0.0
2015-Mar-25 08:29N 34°38' E 135°25'0 0.0
2015-Mar-25 07:23N 34°38' E 135°25'0 0.0
2015-Mar-25 06:29N 34°38' E 135°25'0 0.0
2015-Mar-25 05:23N 34°38' E 135°25'0 0.0
2015-Mar-25 04:29N 34°38' E 135°25'0 0.0
2015-Mar-25 03:29N 34°38' E 135°25'0 0.0
2015-Mar-25 02:17N 34°38' E 135°25'0 0.0
2015-Mar-25 01:29N 34°38' E 135°25'0 0.0
2015-Mar-25 00:23N 34°38' E 135°25'0 0.0
2015-Mar-24 23:29N 34°38' E 135°25'0 0.0
2015-Mar-24 22:23N 34°38' E 135°25'0 0.0
2015-Mar-24 21:29N 34°38' E 135°25'0 0.0
2015-Mar-24 20:29N 34°38' E 135°25'0 0.0
2015-Mar-24 19:17N 34°38' E 135°25'0 0.0
2015-Mar-24 18:29N 34°38' E 135°25'0 0.0
2015-Mar-24 17:17N 34°38' E 135°25'0 0.0
2015-Mar-24 16:23N 34°38' E 135°25'  

Dump ship's entire track history